Time;durP1;ratioP1;P1;durP2;ratioP2;P2;SDS_P1;SDS_P2;PMS_P1;PMS_P2;Temp;Humidity;BMP_temperature;BMP_pressure;BME280_temperature;BME280_humidity;BME280_pressure;Samples;Min_cycle;Max_cycle;Signal;HPM_P1;HPM_P2
2022/09/21 00:00:05;;;;;;;67.45;49.65;;;19.20;62.40;;;;;;4953989;28;104045;-58
2022/09/21 00:02:30;;;;;;;67.60;50.13;;;19.30;62.20;;;;;;4956192;28;96894;-60
2022/09/21 00:04:56;;;;;;;67.35;49.95;;;19.20;62.40;;;;;;4965287;28;95034;-60
2022/09/21 00:07:21;;;;;;;67.25;49.78;;;19.20;62.50;;;;;;4966466;28;95758;-59
2022/09/21 00:09:47;;;;;;;68.22;50.15;;;19.10;62.70;;;;;;4950074;28;98664;-60
2022/09/21 00:12:13;;;;;;;67.35;50.35;;;19.10;62.70;;;;;;4952166;28;96051;-59
2022/09/21 00:14:39;;;;;;;67.75;49.92;;;19.10;62.60;;;;;;4968488;28;95683;-59
2022/09/21 00:17:04;;;;;;;67.50;49.97;;;19.10;62.70;;;;;;4963702;28;94362;-58
2022/09/21 00:19:30;;;;;;;67.47;50.20;;;19.00;62.70;;;;;;4956668;28;97800;-60
2022/09/21 00:21:56;;;;;;;67.10;49.92;;;19.00;62.80;;;;;;4968784;28;96512;-60
2022/09/21 00:24:22;;;;;;;68.03;49.92;;;19.00;62.60;;;;;;4961378;28;96377;-58
2022/09/21 00:26:47;;;;;;;66.97;50.17;;;19.00;62.70;;;;;;4953197;28;96105;-60
2022/09/21 00:29:13;;;;;;;68.28;50.05;;;19.00;62.60;;;;;;4963934;28;98050;-59
2022/09/21 00:31:39;;;;;;;66.88;49.85;;;19.00;63.30;;;;;;4964085;28;95247;-60
2022/09/21 00:34:06;;;;;;;68.75;49.85;;;19.00;62.90;;;;;;4963071;28;95874;-58
2022/09/21 00:36:33;;;;;;;68.15;50.03;;;19.00;62.80;;;;;;4951651;28;96251;-60
2022/09/21 00:39:01;;;;;;;67.05;49.85;;;19.10;62.50;;;;;;4962866;28;94964;-58
2022/09/21 00:41:30;;;;;;;67.60;49.95;;;19.10;62.20;;;;;;4964231;28;94668;-59
2022/09/21 00:44:23;;;;;;;67.47;50.08;;;19.20;62.10;;;;;;4964088;28;95295;-61
2022/09/21 00:46:51;;;;;;;67.63;49.90;;;19.20;61.90;;;;;;4961071;28;97148;-60
2022/09/21 00:49:17;;;;;;;67.22;49.72;;;19.10;61.80;;;;;;4960581;28;96235;-60
2022/09/21 00:51:44;;;;;;;67.50;49.92;;;19.00;62.30;;;;;;4957982;28;96171;-59
2022/09/21 00:54:16;;;;;;;67.65;50.35;;;19.00;62.30;;;;;;4962548;28;95552;-60
2022/09/21 00:56:43;;;;;;;66.78;49.63;;;19.10;62.40;;;;;;4959898;28;101775;-60
2022/09/21 00:59:12;;;;;;;67.43;49.85;;;19.00;62.30;;;;;;4963960;28;94731;-59
2022/09/21 01:01:38;;;;;;;67.47;49.95;;;19.00;62.20;;;;;;4953885;28;95037;-60
2022/09/21 01:04:05;;;;;;;66.93;49.65;;;19.00;62.40;;;;;;4960847;28;95548;-59
2022/09/21 01:06:33;;;;;;;68.47;50.17;;;19.00;62.50;;;;;;4952893;28;99872;-60
2022/09/21 01:09:00;;;;;;;66.93;49.72;;;19.00;62.10;;;;;;4959557;28;94939;-59
2022/09/21 01:11:39;;;;;;;68.13;50.15;;;19.00;62.20;;;;;;4955902;28;96902;-57
2022/09/21 01:14:14;;;;;;;66.82;50.00;;;19.00;62.30;;;;;;4960937;28;95984;-59
2022/09/21 01:16:50;;;;;;;67.35;49.70;;;19.00;62.10;;;;;;4965780;28;97031;-59
2022/09/21 01:19:34;;;;;;;66.32;49.67;;;19.00;62.40;;;;;;4945768;28;95231;-60
2022/09/21 01:22:08;;;;;;;67.82;50.10;;;19.00;62.10;;;;;;4958091;28;101280;-59
2022/09/21 01:24:49;;;;;;;66.82;49.85;;;19.00;62.10;;;;;;4957374;28;96879;-60
2022/09/21 01:27:34;;;;;;;67.43;49.83;;;19.00;62.20;;;;;;4968065;28;95220;-60
2022/09/21 01:30:11;;;;;;;66.75;49.85;;;19.00;62.10;;;;;;4957952;28;95454;-58
2022/09/21 01:32:51;;;;;;;67.15;50.35;;;19.00;62.10;;;;;;4953531;28;95771;-59
2022/09/21 01:35:42;;;;;;;67.40;50.47;;;19.00;61.80;;;;;;4964489;28;95147;-59
2022/09/21 01:38:23;;;;;;;67.13;50.33;;;19.00;61.90;;;;;;4961906;28;95077;-59
2022/09/21 01:40:54;;;;;;;67.43;49.63;;;19.10;61.50;;;;;;4966151;28;96588;-58
2022/09/21 01:43:30;;;;;;;67.10;49.95;;;19.10;61.50;;;;;;4960131;28;95153;-60
2022/09/21 01:46:00;;;;;;;68.32;50.05;;;19.10;61.40;;;;;;4965846;28;96504;-60
2022/09/21 01:48:30;;;;;;;66.75;49.85;;;19.00;61.70;;;;;;4953968;28;96680;-60
2022/09/21 01:50:57;;;;;;;67.32;50.08;;;18.90;62.20;;;;;;4963456;28;96277;-59
2022/09/21 01:53:36;;;;;;;66.53;50.03;;;18.90;62.20;;;;;;4955689;28;95495;-60
2022/09/21 01:56:12;;;;;;;67.15;49.95;;;18.90;61.90;;;;;;4961670;28;94862;-59
2022/09/21 01:58:45;;;;;;;66.25;49.50;;;18.90;61.90;;;;;;4959167;28;96899;-59
2022/09/21 02:01:15;;;;;;;66.82;49.83;;;18.90;62.10;;;;;;4952495;28;95568;-60
2022/09/21 02:03:58;;;;;;;67.13;49.72;;;18.90;62.20;;;;;;4962579;28;95283;-58
2022/09/21 02:06:29;;;;;;;67.20;50.00;;;18.90;61.60;;;;;;4962092;28;96720;-58
2022/09/21 02:08:55;;;;;;;67.30;49.88;;;18.90;61.80;;;;;;4953971;28;95794;-59
2022/09/21 02:11:21;;;;;;;67.18;49.80;;;19.00;61.50;;;;;;4963627;28;96938;-58
2022/09/21 02:13:51;;;;;;;66.50;49.95;;;19.00;61.40;;;;;;4954633;28;97719;-59
2022/09/21 02:16:29;;;;;;;67.07;50.13;;;18.90;61.50;;;;;;4964451;28;95216;-59
2022/09/21 02:19:15;;;;;;;67.50;49.80;;;18.90;61.60;;;;;;4965469;28;95102;-59
2022/09/21 02:21:47;;;;;;;67.82;50.10;;;18.90;61.50;;;;;;4968200;28;94934;-58
2022/09/21 02:24:19;;;;;;;67.75;49.67;;;19.00;61.30;;;;;;4972191;28;94305;-59
2022/09/21 02:26:52;;;;;;;67.03;50.20;;;18.90;61.40;;;;;;4959230;28;95783;-61
2022/09/21 02:29:32;;;;;;;67.32;49.88;;;18.90;61.50;;;;;;4959097;28;95632;-59
2022/09/21 02:32:49;;;;;;;67.68;50.00;;;18.90;61.50;;;;;;4957308;28;96277;-58
2022/09/21 02:35:29;;;;;;;66.63;49.65;;;18.90;61.30;;;;;;4933685;28;95419;-58
2022/09/21 02:38:07;;;;;;;65.90;49.47;;;18.80;61.60;;;;;;4962640;28;98181;-58
2022/09/21 02:40:50;;;;;;;67.07;49.95;;;18.80;61.80;;;;;;4954793;28;96139;-59
2022/09/21 02:43:24;;;;;;;66.55;49.55;;;18.80;61.90;;;;;;4964096;28;96301;-57
2022/09/21 02:46:10;;;;;;;66.32;49.75;;;18.80;62.30;;;;;;4966966;28;94817;-59
2022/09/21 02:48:59;;;;;;;67.13;49.78;;;18.90;61.70;;;;;;4968503;28;95572;-59
2022/09/21 02:51:31;;;;;;;66.40;49.58;;;18.90;61.50;;;;;;4965542;28;97302;-58
2022/09/21 02:53:59;;;;;;;66.07;49.47;;;18.90;61.40;;;;;;4963486;28;95279;-60
2022/09/21 02:56:25;;;;;;;67.20;49.78;;;18.80;61.50;;;;;;4959353;28;95352;-57
2022/09/21 02:58:55;;;;;;;66.15;49.65;;;18.80;61.60;;;;;;4960877;28;96017;-59
2022/09/21 03:01:24;;;;;;;66.82;49.90;;;18.80;61.60;;;;;;4964725;28;96287;-56
2022/09/21 03:03:50;;;;;;;66.95;49.50;;;18.80;61.60;;;;;;4955318;28;95255;-59
2022/09/21 03:06:16;;;;;;;66.43;49.95;;;18.80;61.80;;;;;;4953521;28;95836;-59
2022/09/21 03:08:41;;;;;;;67.18;49.85;;;18.70;61.90;;;;;;4952871;28;95991;-59
2022/09/21 03:11:09;;;;;;;66.63;49.50;;;18.70;62.00;;;;;;4964034;28;95109;-59
2022/09/21 03:13:35;;;;;;;66.50;49.92;;;18.70;62.00;;;;;;4955031;28;94951;-60
2022/09/21 03:16:04;;;;;;;66.20;49.78;;;18.70;62.10;;;;;;4960233;28;100968;-58
2022/09/21 03:18:30;;;;;;;66.93;49.83;;;18.70;61.90;;;;;;4968355;28;95175;-60
2022/09/21 03:20:56;;;;;;;66.45;49.65;;;18.60;62.10;;;;;;4965305;28;95686;-58
2022/09/21 03:23:22;;;;;;;67.10;49.83;;;18.70;62.00;;;;;;4962792;28;99298;-60
2022/09/21 03:25:51;;;;;;;66.15;49.45;;;18.70;61.90;;;;;;4966896;28;96345;-59
2022/09/21 03:28:17;;;;;;;66.65;49.85;;;18.70;62.80;;;;;;4950613;28;95433;-58
2022/09/21 03:30:42;;;;;;;66.03;49.65;;;18.70;61.60;;;;;;4956861;28;95826;-59
2022/09/21 03:33:09;;;;;;;66.82;49.65;;;18.70;61.70;;;;;;4956372;28;96287;-60
2022/09/21 03:35:34;;;;;;;67.18;49.88;;;18.70;61.90;;;;;;4957802;28;95217;-58
2022/09/21 03:38:01;;;;;;;66.32;49.80;;;18.70;61.70;;;;;;4953961;28;96514;-58
2022/09/21 03:40:27;;;;;;;66.30;49.97;;;18.60;62.00;;;;;;4959627;28;95557;-60
2022/09/21 03:42:53;;;;;;;66.13;49.65;;;18.60;62.10;;;;;;4948717;28;95027;-60
2022/09/21 03:45:26;;;;;;;66.50;50.25;;;18.60;62.10;;;;;;4960462;28;95928;-59
2022/09/21 03:48:00;;;;;;;66.90;49.70;;;18.60;62.30;;;;;;4961490;28;103131;-57
2022/09/21 03:50:28;;;;;;;66.00;49.75;;;18.60;62.00;;;;;;4953633;28;97761;-56
2022/09/21 03:52:57;;;;;;;67.45;49.85;;;18.60;61.80;;;;;;4961903;28;96959;-59
2022/09/21 03:55:23;;;;;;;66.53;49.83;;;18.70;61.70;;;;;;4959215;28;97334;-57
2022/09/21 03:57:49;;;;;;;66.55;49.45;;;18.60;61.90;;;;;;4952874;28;95196;-58
2022/09/21 04:00:15;;;;;;;68.30;49.45;;;18.60;61.80;;;;;;4959092;28;96118;-56
2022/09/21 04:02:40;;;;;;;68.57;49.78;;;18.60;62.00;;;;;;4944562;28;96384;-58
2022/09/21 04:05:09;;;;;;;66.20;49.67;;;18.60;62.20;;;;;;4956189;28;96629;-58
2022/09/21 04:07:35;;;;;;;66.07;49.72;;;18.60;62.10;;;;;;4963332;28;94967;-58
2022/09/21 04:10:03;;;;;;;66.57;49.75;;;18.60;62.10;;;;;;4960933;28;95183;-57
2022/09/21 04:12:30;;;;;;;66.20;49.63;;;18.60;62.10;;;;;;4955683;28;98342;-58
2022/09/21 04:14:55;;;;;;;67.35;50.30;;;18.60;61.80;;;;;;4964794;28;94985;-59
2022/09/21 04:17:21;;;;;;;67.00;49.75;;;18.70;61.80;;;;;;4950260;28;94978;-58
2022/09/21 04:19:47;;;;;;;66.63;49.70;;;18.60;62.10;;;;;;4957440;28;96993;-58
2022/09/21 04:22:13;;;;;;;65.47;49.35;;;18.60;62.10;;;;;;4963180;28;94792;-59
2022/09/21 04:24:42;;;;;;;67.05;49.95;;;18.60;61.90;;;;;;4964681;28;97136;-57
2022/09/21 04:27:08;;;;;;;66.72;49.65;;;18.60;62.10;;;;;;4955238;28;95982;-59
2022/09/21 04:29:34;;;;;;;68.75;49.28;;;18.60;62.10;;;;;;4956773;28;96181;-59
2022/09/21 04:32:00;;;;;;;66.22;49.72;;;18.60;62.20;;;;;;4952724;28;96302;-57
2022/09/21 04:34:26;;;;;;;65.85;49.58;;;18.60;61.80;;;;;;4952019;28;98784;-59
2022/09/21 04:36:55;;;;;;;66.22;49.85;;;18.60;61.90;;;;;;4957008;28;96622;-60
2022/09/21 04:39:21;;;;;;;65.82;49.45;;;18.60;61.70;;;;;;4957337;28;96017;-60
2022/09/21 04:41:47;;;;;;;67.75;49.85;;;18.60;62.70;;;;;;4957503;28;96794;-59
2022/09/21 04:44:12;;;;;;;65.95;49.55;;;18.50;62.10;;;;;;4970579;28;95426;-59
2022/09/21 04:46:38;;;;;;;66.10;49.30;;;18.50;61.90;;;;;;4960389;28;95339;-58
2022/09/21 04:49:04;;;;;;;66.03;49.90;;;18.50;62.10;;;;;;4957821;28;95223;-60
2022/09/21 04:51:30;;;;;;;67.85;50.22;;;18.50;62.00;;;;;;4963757;28;95368;-56
2022/09/21 04:53:56;;;;;;;67.55;49.92;;;18.50;62.50;;;;;;4964582;28;94373;-60
2022/09/21 04:56:21;;;;;;;67.35;49.55;;;18.50;62.60;;;;;;4951328;28;101913;-60
2022/09/21 04:58:47;;;;;;;66.97;50.47;;;18.40;63.00;;;;;;4957821;28;96594;-59
2022/09/21 05:01:13;;;;;;;66.88;49.53;;;18.40;62.80;;;;;;4965024;28;96280;-58
2022/09/21 05:03:38;;;;;;;68.30;49.88;;;18.30;62.80;;;;;;4962373;28;99230;-59
2022/09/21 05:06:04;;;;;;;68.30;50.20;;;18.20;63.30;;;;;;4968283;28;95257;-58
2022/09/21 05:11:19;;;;;;;69.13;50.53;;;18.20;63.50;;;;;;4973316;28;95673;-58
2022/09/21 05:13:46;;;;;;;67.80;49.55;;;18.10;64.10;;;;;;4969426;28;95197;-59
2022/09/21 05:16:11;;;;;;;66.90;50.05;;;18.30;63.50;;;;;;4960900;28;99267;-59
2022/09/21 05:18:37;;;;;;;68.03;49.97;;;18.20;63.70;;;;;;4956926;28;99567;-57
2022/09/21 05:21:03;;;;;;;68.65;50.10;;;18.10;64.10;;;;;;4963344;28;95403;-58
2022/09/21 05:23:30;;;;;;;68.25;49.90;;;18.10;64.40;;;;;;4966898;28;95134;-59
2022/09/21 05:25:57;;;;;;;67.05;49.85;;;18.10;64.20;;;;;;4956179;28;96121;-59
2022/09/21 05:28:24;;;;;;;67.95;49.97;;;18.00;64.30;;;;;;4952899;28;97936;-58
2022/09/21 05:31:01;;;;;;;67.68;50.15;;;18.00;64.70;;;;;;4958165;28;95286;-58
2022/09/21 05:33:29;;;;;;;68.10;50.03;;;18.00;65.00;;;;;;4960742;28;95693;-59
2022/09/21 05:36:04;;;;;;;69.00;49.78;;;18.10;65.50;;;;;;4959928;28;99287;-59
2022/09/21 05:38:30;;;;;;;68.45;50.20;;;18.10;65.30;;;;;;4958994;28;95886;-59
2022/09/21 05:40:56;;;;;;;69.00;50.28;;;18.20;66.10;;;;;;4959985;28;96118;-58
2022/09/21 05:43:22;;;;;;;71.25;50.78;;;18.20;64.80;;;;;;4952249;28;95087;-59
2022/09/21 05:46:01;;;;;;;71.88;51.20;;;18.00;65.30;;;;;;4967206;28;97169;-59
2022/09/21 05:48:36;;;;;;;70.47;51.00;;;18.00;65.30;;;;;;4969125;28;96377;-58
2022/09/21 05:51:05;;;;;;;68.25;50.55;;;18.00;65.30;;;;;;4964101;28;97123;-59
2022/09/21 05:54:03;;;;;;;73.35;51.35;;;18.00;65.30;;;;;;4970005;28;95218;-57
2022/09/21 05:57:03;;;;;;;69.15;50.60;;;18.00;65.30;;;;;;4971959;28;95389;-59
2022/09/21 06:00:01;;;;;;;73.57;50.45;;;18.10;65.00;;;;;;4968317;28;96201;-59
2022/09/21 06:02:52;;;;;;;74.20;51.13;;;18.00;65.40;;;;;;4972177;28;95335;-58
2022/09/21 06:05:19;;;;;;;71.63;50.75;;;18.00;65.30;;;;;;4966486;28;95118;-58
2022/09/21 06:07:44;;;;;;;72.28;50.95;;;18.00;65.30;;;;;;4974845;28;95396;-58
2022/09/21 06:10:14;;;;;;;71.47;51.17;;;18.00;65.20;;;;;;4973756;28;95879;-58
2022/09/21 06:12:40;;;;;;;72.88;51.53;;;17.90;65.50;;;;;;4956928;28;99993;-59
2022/09/21 06:15:09;;;;;;;73.18;51.53;;;17.90;65.50;;;;;;4967998;28;98077;-58
2022/09/21 06:17:35;;;;;;;71.63;51.95;;;17.90;65.70;;;;;;4966469;28;96252;-58
2022/09/21 06:20:02;;;;;;;69.45;50.58;;;17.90;65.60;;;;;;4971473;28;94873;-59
2022/09/21 06:22:27;;;;;;;72.25;50.83;;;17.90;65.60;;;;;;4967656;28;95783;-59
2022/09/21 06:24:53;;;;;;;73.53;51.45;;;17.90;65.80;;;;;;4969857;28;96139;-59
2022/09/21 06:27:19;;;;;;;73.22;51.35;;;17.90;65.60;;;;;;4976383;28;94636;-59
2022/09/21 06:29:44;;;;;;;70.63;50.97;;;17.90;65.50;;;;;;4968508;28;94724;-59
2022/09/21 06:32:10;;;;;;;74.07;51.33;;;17.90;65.20;;;;;;4968984;28;94781;-59
2022/09/21 06:34:36;;;;;;;73.35;51.38;;;17.90;66.10;;;;;;4968373;28;97570;-59
2022/09/21 06:37:02;;;;;;;71.38;51.30;;;17.90;65.50;;;;;;4968788;28;99307;-59
2022/09/21 06:39:28;;;;;;;70.75;50.83;;;17.90;65.50;;;;;;4968106;28;96505;-59
2022/09/21 06:41:55;;;;;;;71.93;51.58;;;17.90;65.40;;;;;;4964503;28;95693;-59
2022/09/21 06:44:20;;;;;;;72.18;51.17;;;17.90;65.30;;;;;;4968417;28;95562;-59
2022/09/21 06:46:46;;;;;;;72.88;51.83;;;17.90;65.40;;;;;;4968415;28;99175;-60
2022/09/21 06:49:12;;;;;;;71.72;51.33;;;17.90;65.40;;;;;;4956273;28;94791;-59
2022/09/21 06:51:38;;;;;;;72.43;51.58;;;18.00;65.20;;;;;;4966801;28;95022;-59
2022/09/21 06:54:04;;;;;;;70.75;51.03;;;17.90;65.30;;;;;;4966172;28;95088;-59
2022/09/21 06:56:29;;;;;;;72.55;51.53;;;17.90;65.20;;;;;;4973041;28;96480;-59
2022/09/21 06:58:55;;;;;;;70.60;51.13;;;18.00;65.10;;;;;;4968232;28;96049;-60
2022/09/21 07:01:21;;;;;;;70.28;50.88;;;18.00;65.00;;;;;;4965206;28;96150;-58
2022/09/21 07:03:51;;;;;;;71.20;51.03;;;18.00;64.80;;;;;;4977536;28;95137;-59
2022/09/21 07:06:17;;;;;;;70.00;50.70;;;18.00;64.80;;;;;;4961718;28;96714;-59
2022/09/21 07:08:44;;;;;;;71.55;51.40;;;18.10;65.10;;;;;;4960168;28;97182;-60
2022/09/21 07:11:11;;;;;;;70.63;51.63;;;18.00;64.60;;;;;;4968172;28;95958;-58
2022/09/21 07:13:37;;;;;;;70.85;51.10;;;18.10;64.90;;;;;;4966418;28;96929;-58
2022/09/21 07:16:05;;;;;;;70.70;50.90;;;18.00;64.60;;;;;;4961176;28;95785;-59
2022/09/21 07:18:33;;;;;;;69.28;51.30;;;18.10;64.70;;;;;;4966088;28;95500;-58
2022/09/21 07:21:02;;;;;;;70.45;51.00;;;18.20;64.40;;;;;;4964411;28;94925;-57
2022/09/21 07:23:28;;;;;;;68.47;50.60;;;18.20;64.20;;;;;;4968586;28;95069;-59
2022/09/21 07:25:53;;;;;;;72.82;50.95;;;18.10;64.50;;;;;;4964204;28;95353;-59
2022/09/21 07:28:19;;;;;;;72.00;52.15;;;18.10;64.40;;;;;;4959437;28;95189;-60
2022/09/21 07:30:45;;;;;;;73.93;51.40;;;18.10;64.60;;;;;;4969067;28;96329;-58
2022/09/21 07:33:11;;;;;;;71.10;50.95;;;18.10;64.60;;;;;;4964347;28;95124;-58
2022/09/21 07:35:37;;;;;;;69.93;51.17;;;18.10;65.00;;;;;;4960406;28;95814;-59
2022/09/21 07:38:05;;;;;;;71.00;51.03;;;18.10;65.00;;;;;;4952071;28;97326;-59
2022/09/21 07:40:32;;;;;;;70.45;51.28;;;18.00;64.90;;;;;;4962247;28;95276;-59
2022/09/21 07:43:01;;;;;;;70.53;51.42;;;18.00;65.00;;;;;;4960636;28;95432;-58
2022/09/21 07:45:26;;;;;;;73.05;51.20;;;18.00;65.20;;;;;;4960127;28;96068;-59
2022/09/21 07:47:54;;;;;;;72.80;51.35;;;18.00;65.30;;;;;;4964594;28;96961;-57
2022/09/21 07:50:21;;;;;;;72.75;51.47;;;18.00;65.40;;;;;;4961512;28;97543;-58
2022/09/21 07:52:47;;;;;;;72.07;51.05;;;18.00;65.30;;;;;;4969466;28;95020;-59
2022/09/21 07:55:13;;;;;;;72.65;51.65;;;18.00;65.50;;;;;;4953023;28;96209;-59
2022/09/21 08:00:24;;;;;;;73.10;51.33;;;18.00;65.40;;;;;;4971383;28;94811;-58
2022/09/21 08:02:49;;;;;;;71.30;51.13;;;18.00;65.40;;;;;;4957544;28;97694;-59
2022/09/21 08:05:15;;;;;;;71.93;51.38;;;18.00;65.60;;;;;;4961637;28;96396;-59
2022/09/21 08:07:41;;;;;;;73.88;51.45;;;18.00;65.30;;;;;;4963487;28;95782;-58
2022/09/21 08:10:08;;;;;;;74.22;51.28;;;18.00;65.30;;;;;;4966312;28;95114;-58
2022/09/21 08:12:33;;;;;;;70.53;51.25;;;18.00;65.30;;;;;;4956122;28;97086;-58
2022/09/21 08:14:59;;;;;;;73.97;51.70;;;18.00;65.30;;;;;;4965162;28;95316;-57
2022/09/21 08:17:25;;;;;;;69.95;51.15;;;18.00;65.30;;;;;;4968197;28;99457;-58
2022/09/21 08:19:50;;;;;;;69.95;51.08;;;18.00;65.40;;;;;;4964800;28;95821;-59
2022/09/21 08:22:16;;;;;;;71.13;50.85;;;18.10;65.50;;;;;;4962478;28;95173;-58
2022/09/21 08:24:43;;;;;;;71.72;51.72;;;18.10;65.20;;;;;;4954627;28;95433;-58
2022/09/21 08:27:09;;;;;;;70.10;51.28;;;18.10;65.30;;;;;;4967014;28;95753;-60
2022/09/21 08:29:35;;;;;;;70.85;50.83;;;18.10;65.10;;;;;;4965902;28;95540;-59
2022/09/21 08:32:01;;;;;;;71.30;51.25;;;18.20;65.10;;;;;;4962483;28;95447;-59
2022/09/21 08:34:27;;;;;;;76.35;51.45;;;18.20;64.80;;;;;;4963992;28;98265;-60
2022/09/21 08:36:52;;;;;;;69.93;51.05;;;18.20;64.80;;;;;;4965630;28;99185;-58
2022/09/21 08:39:18;;;;;;;69.20;50.70;;;18.30;64.50;;;;;;4963064;28;99925;-59
2022/09/21 08:42:07;;;;;;;71.90;50.92;;;18.30;64.20;;;;;;4951166;28;95795;-59
2022/09/21 08:44:44;;;;;;;70.75;50.67;;;18.40;63.90;;;;;;4960646;28;96511;-59
2022/09/21 08:47:47;;;;;;;71.43;51.20;;;18.50;63.70;;;;;;4968326;28;97042;-59
2022/09/21 08:50:41;;;;;;;71.38;51.35;;;18.50;63.40;;;;;;4956312;28;95129;-57
2022/09/21 08:53:22;;;;;;;73.85;50.92;;;18.60;63.40;;;;;;4963702;28;94888;-59
2022/09/21 08:55:48;;;;;;;69.53;50.83;;;18.50;63.30;;;;;;4971980;28;95081;-59
2022/09/21 08:58:22;;;;;;;69.55;50.63;;;18.60;64.00;;;;;;4965068;28;98492;-59
2022/09/21 09:00:53;;;;;;;70.57;50.88;;;18.60;63.20;;;;;;4965533;28;97781;-59
2022/09/21 09:03:37;;;;;;;71.70;51.40;;;18.60;63.00;;;;;;4961762;28;94404;-59
2022/09/21 09:06:40;;;;;;;69.05;50.72;;;18.60;63.10;;;;;;4955379;28;95508;-59
2022/09/21 09:09:32;;;;;;;72.55;50.75;;;18.60;63.10;;;;;;4968014;28;96101;-57
2022/09/21 09:12:06;;;;;;;71.18;51.15;;;18.70;63.00;;;;;;4936718;28;95825;-58
2022/09/21 09:15:07;;;;;;;68.57;50.45;;;18.70;62.80;;;;;;4965294;28;95308;-56
2022/09/21 09:18:02;;;;;;;71.30;51.13;;;18.80;62.70;;;;;;4962712;28;97225;-58
2022/09/21 09:20:38;;;;;;;68.47;50.70;;;18.90;62.70;;;;;;4979219;28;95039;-58
2022/09/21 09:23:25;;;;;;;68.50;50.38;;;18.90;62.50;;;;;;4958622;28;99105;-58
2022/09/21 09:25:57;;;;;;;70.10;50.85;;;19.00;62.40;;;;;;4958574;28;97080;-57
2022/09/21 09:28:33;;;;;;;70.72;50.83;;;19.00;62.20;;;;;;4955071;28;96040;-57
2022/09/21 09:31:20;;;;;;;69.05;50.72;;;19.00;62.10;;;;;;4957084;28;99406;-57
2022/09/21 09:33:55;;;;;;;70.47;50.63;;;19.10;62.20;;;;;;4951065;28;95019;-56
2022/09/21 09:36:23;;;;;;;70.20;50.85;;;19.10;61.90;;;;;;4964820;28;95134;-58
2022/09/21 09:38:56;;;;;;;68.93;50.40;;;19.10;62.10;;;;;;4962394;28;96267;-58
2022/09/21 09:41:42;;;;;;;69.68;50.55;;;19.10;62.90;;;;;;4958785;28;95581;-62
2022/09/21 09:44:45;;;;;;;70.53;50.83;;;19.20;62.10;;;;;;4961539;28;97482;-58
2022/09/21 09:47:32;;;;;;;69.68;50.53;;;19.20;62.00;;;;;;4967338;28;98904;-57
2022/09/21 09:50:09;;;;;;;69.85;50.58;;;19.30;62.10;;;;;;4959607;28;96168;-58
2022/09/21 09:52:35;;;;;;;69.00;50.13;;;19.40;61.80;;;;;;4975418;28;95274;-58
2022/09/21 09:55:34;;;;;;;69.47;50.60;;;19.40;61.90;;;;;;4952172;28;98127;-58
2022/09/21 09:58:01;;;;;;;70.70;50.50;;;19.40;61.80;;;;;;4953552;28;95005;-57
2022/09/21 10:00:26;;;;;;;70.15;50.70;;;19.40;61.80;;;;;;4961433;28;95909;-57
2022/09/21 10:02:59;;;;;;;69.97;50.42;;;19.40;61.90;;;;;;4960703;28;99625;-57
2022/09/21 10:05:32;;;;;;;70.07;50.58;;;19.40;61.80;;;;;;4967134;28;98415;-57
2022/09/21 10:07:59;;;;;;;70.28;50.67;;;19.40;61.90;;;;;;4963146;28;95978;-57
2022/09/21 10:10:40;;;;;;;71.18;50.50;;;19.50;61.90;;;;;;4958304;28;95680;-58
2022/09/21 10:13:14;;;;;;;70.90;51.25;;;19.40;61.90;;;;;;4953889;28;96307;-56
2022/09/21 10:16:01;;;;;;;71.18;51.05;;;19.50;62.00;;;;;;4962249;28;95128;-57
2022/09/21 10:18:43;;;;;;;71.28;50.60;;;19.50;61.90;;;;;;4963924;28;95161;-58
2022/09/21 10:21:15;;;;;;;;;;;19.50;61.80;;;;;;4961543;28;97136;-58
2022/09/21 10:23:47;;;;;;;69.03;50.60;;;19.60;61.70;;;;;;4967386;28;95235;-58
2022/09/21 10:26:13;;;;;;;69.90;50.25;;;19.60;61.70;;;;;;4960147;28;96776;-58
2022/09/21 10:28:55;;;;;;;69.28;50.08;;;19.50;61.70;;;;;;4952685;28;96368;-58
2022/09/21 10:31:23;;;;;;;68.43;50.40;;;19.60;61.70;;;;;;4961850;28;96218;-57
2022/09/21 10:34:13;;;;;;;70.00;50.78;;;19.60;61.50;;;;;;4963163;28;96438;-58
2022/09/21 10:36:39;;;;;;;69.57;50.65;;;19.60;61.40;;;;;;4971378;28;96265;-57
2022/09/21 10:39:19;;;;;;;69.93;50.85;;;19.70;61.30;;;;;;4962182;28;97473;-57
2022/09/21 10:42:14;;;;;;;71.47;50.67;;;19.70;61.30;;;;;;4966590;28;97199;-56
2022/09/21 10:44:42;;;;;;;69.95;50.67;;;19.70;61.40;;;;;;4961493;28;96954;-57
2022/09/21 10:47:23;;;;;;;70.30;50.55;;;19.70;61.20;;;;;;4970949;28;95480;-58
2022/09/21 10:49:54;;;;;;;69.68;50.83;;;19.70;61.30;;;;;;4967316;28;96892;-57
2022/09/21 10:52:32;;;;;;;71.20;50.55;;;19.70;61.20;;;;;;4963603;28;99846;-58
2022/09/21 10:54:58;;;;;;;69.95;50.55;;;19.80;62.00;;;;;;4960693;28;98765;-57
2022/09/21 10:57:27;;;;;;;70.35;50.85;;;19.80;61.20;;;;;;4957031;28;95802;-58
2022/09/21 10:59:52;;;;;;;69.45;50.75;;;19.80;61.00;;;;;;4960232;28;95706;-58
2022/09/21 11:02:30;;;;;;;70.20;50.65;;;19.90;60.90;;;;;;4966472;28;96145;-57
2022/09/21 11:05:17;;;;;;;70.88;50.45;;;19.90;60.90;;;;;;4961086;28;95137;-56
2022/09/21 11:08:13;;;;;;;71.95;50.65;;;19.90;60.70;;;;;;4973862;28;97568;-58
2022/09/21 11:10:51;;;;;;;69.20;50.45;;;19.90;60.50;;;;;;4961321;28;95176;-58
2022/09/21 11:13:59;;;;;;;68.97;50.42;;;19.90;60.40;;;;;;4968486;28;95687;-57
2022/09/21 11:16:47;;;;;;;69.70;50.85;;;19.90;60.40;;;;;;4963517;28;95506;-57
2022/09/21 11:19:13;;;;;;;70.15;51.13;;;19.90;60.40;;;;;;4962397;28;96065;-57
2022/09/21 11:22:06;;;;;;;71.07;50.50;;;20.00;60.30;;;;;;4974102;28;95175;-58
2022/09/21 11:24:56;;;;;;;69.63;50.53;;;20.00;60.10;;;;;;4970960;28;96284;-58
2022/09/21 11:27:28;;;;;;;69.45;50.75;;;20.00;60.30;;;;;;4973554;28;96687;-58
2022/09/21 11:30:03;;;;;;;69.72;51.00;;;20.00;60.20;;;;;;4962444;28;97079;-57
2022/09/21 11:32:43;;;;;;;69.70;50.35;;;20.00;60.10;;;;;;4962703;28;95070;-58
2022/09/21 11:35:46;;;;;;;71.07;50.65;;;20.10;60.10;;;;;;4954334;28;97150;-58
2022/09/21 11:38:26;;;;;;;69.70;50.58;;;20.10;60.10;;;;;;4966199;28;96571;-58
2022/09/21 11:41:02;;;;;;;70.88;50.50;;;20.10;60.10;;;;;;4962785;28;95373;-58
2022/09/21 11:43:50;;;;;;;70.00;50.58;;;20.10;60.00;;;;;;4961639;28;98098;-58
2022/09/21 11:46:46;;;;;;;71.47;50.90;;;20.10;60.00;;;;;;4966372;28;95465;-55
2022/09/21 11:49:18;;;;;;;69.80;50.55;;;20.20;59.90;;;;;;4960186;28;95068;-58
2022/09/21 11:51:44;;;;;;;70.82;51.03;;;20.20;59.80;;;;;;4957687;28;98295;-58
2022/09/21 11:54:27;;;;;;;71.43;50.78;;;20.20;59.70;;;;;;4963379;28;95237;-58
2022/09/21 11:57:15;;;;;;;71.38;51.17;;;20.30;59.60;;;;;;4965262;28;97121;-58
2022/09/21 11:59:59;;;;;;;70.78;50.78;;;20.30;59.50;;;;;;4959997;28;95364;-59
2022/09/21 12:02:39;;;;;;;69.93;50.67;;;20.40;59.50;;;;;;4961787;28;98055;-58
2022/09/21 12:05:23;;;;;;;69.90;50.67;;;20.30;59.30;;;;;;4969976;28;95156;-58
2022/09/21 12:08:13;;;;;;;70.10;50.60;;;20.40;59.50;;;;;;4958306;28;95369;-57
2022/09/21 12:11:16;;;;;;;70.97;50.70;;;20.50;59.30;;;;;;4957312;28;95019;-57
2022/09/21 12:13:50;;;;;;;72.10;51.15;;;20.50;59.40;;;;;;4960946;28;95308;-58
2022/09/21 12:16:29;;;;;;;70.82;50.75;;;20.50;59.20;;;;;;4957981;28;94963;-58
2022/09/21 12:19:16;;;;;;;70.40;50.67;;;20.60;59.10;;;;;;4961843;28;96895;-58
2022/09/21 12:22:08;;;;;;;70.68;51.05;;;20.60;59.10;;;;;;4953877;28;97158;-58
2022/09/21 12:24:49;;;;;;;70.53;50.70;;;20.70;59.00;;;;;;4963401;28;95699;-58
2022/09/21 12:27:28;;;;;;;71.35;50.95;;;20.70;59.00;;;;;;4960556;28;98040;-58
2022/09/21 12:30:13;;;;;;;70.78;50.97;;;20.70;58.90;;;;;;4955822;28;96466;-58
2022/09/21 12:32:52;;;;;;;71.45;51.00;;;20.80;58.90;;;;;;4960935;28;94939;-58
2022/09/21 12:35:52;;;;;;;72.85;51.05;;;20.80;58.70;;;;;;4967428;28;95070;-57
2022/09/21 12:38:36;;;;;;;71.25;50.80;;;20.80;58.60;;;;;;4957807;28;95825;-58
2022/09/21 12:41:18;;;;;;;70.93;51.08;;;20.80;58.50;;;;;;4962242;28;95425;-57
2022/09/21 12:43:56;;;;;;;71.15;50.80;;;20.80;58.50;;;;;;4956470;28;95136;-57
2022/09/21 12:46:24;;;;;;;72.22;50.95;;;20.80;58.40;;;;;;4970520;28;98847;-59
2022/09/21 12:48:50;;;;;;;72.40;50.97;;;20.80;58.30;;;;;;4966495;28;95265;-58
2022/09/21 12:51:21;;;;;;;70.70;50.92;;;20.90;58.40;;;;;;4955625;28;95159;-58
2022/09/21 12:53:50;;;;;;;73.15;51.13;;;20.90;58.40;;;;;;4955730;28;97046;-57
2022/09/21 12:56:42;;;;;;;71.10;51.00;;;20.90;58.30;;;;;;4959781;28;95826;-57
2022/09/21 12:59:13;;;;;;;71.75;50.90;;;20.90;58.40;;;;;;4970705;28;95205;-58
2022/09/21 13:01:48;;;;;;;;;;;21.00;58.20;;;;;;4958310;28;95623;-57